Portada
METAR-TAF:

METAR-TAF

Aeroports :

Macaé, Rio de Janeiro, Brasil

latitud: 22-21S, longitud: 041-46W, altitud: 2 m

Observació

L'informe es va fer fa 48 minuts, a les 04:00 UTC
Vent 2 kt del Nord/Nord-Est
Temperatura 18°C
Humitat 100%
Pressió 1024 hPa
Visibilitat 10 km o més
Núvols disperses a una alçada de 2000 ft

METAR: SBME 090400Z 02002KT 9999 SCT020 18/18 Q1024

Hora: 01:48 (04:48 UTC)

Pronòstic

L'informe es va fer fa 7 hores i 48 minuts, a les 21:00 UTC
Pronòstic vàlid del 09 a les 00 UTC al 09 a les 12 UTC
Vent 6 kt del Nord/Nord-Est
Visibilitat 10 km o més
sense núvols per sota de 1500 mi sense presència de cumulonimbus.
Evolucionant progressivament
l' 09 a les 10 UTC al 09 a les 12 UTC
Vent 8 kt del Est

TAF: SBME 082100Z 0900/0912 03006KT CAVOK TN16/0906Z TX23/0912Z BECMG 0910/0912 10008KT RMK PEG

Observacions i pronòstics meteorològics de més de 4000 aeroports (METAR i TAF).

Les estacions disponibles són els punts grocs i vermells al mapa.

Posi el ratolí al punt desitjat per veure el nom de l'estació.

Feu clic per veure les observacions i els pronòstics meteorològics.

Per canviar el mapa: feu clic els botons verds amb una creu de color negre per apropar; al botó verd amb un guió per allunyar la imatge; o en les fletxes verdes per a mapes adjacents.


METAR-TAF: